createdAt,value
2018-11-06T00:01:44.915Z,16.30
2018-11-06T00:03:46.697Z,16.30
2018-11-06T00:05:48.515Z,16.30
2018-11-06T00:07:50.287Z,16.30
2018-11-06T00:09:52.072Z,16.30
2018-11-06T00:11:53.913Z,16.30
2018-11-06T00:13:55.685Z,16.30
2018-11-06T00:15:57.460Z,16.30
2018-11-06T00:17:59.261Z,16.30
2018-11-06T00:20:01.008Z,16.30
2018-11-06T00:22:02.796Z,16.20
2018-11-06T00:24:04.607Z,16.30
2018-11-06T00:26:06.393Z,16.30
2018-11-06T00:28:08.208Z,16.20
2018-11-06T00:30:09.995Z,16.30
2018-11-06T00:32:11.771Z,16.20
2018-11-06T00:34:13.696Z,16.20
2018-11-06T00:36:15.378Z,16.20
2018-11-06T00:38:17.168Z,16.20
2018-11-06T00:40:18.983Z,16.20
2018-11-06T00:42:20.758Z,16.20
2018-11-06T00:44:22.612Z,16.20
2018-11-06T00:46:24.385Z,16.20
2018-11-06T00:48:26.209Z,16.20
2018-11-06T00:50:28.018Z,16.20
2018-11-06T00:52:29.796Z,16.20
2018-11-06T00:54:31.639Z,16.20
2018-11-06T00:56:33.519Z,16.20
2018-11-06T00:58:35.302Z,16.20
2018-11-06T01:00:37.128Z,16.20
2018-11-06T01:02:38.900Z,16.20
2018-11-06T01:04:40.701Z,16.20
2018-11-06T01:06:42.547Z,16.20
2018-11-06T01:08:44.323Z,16.20
2018-11-06T01:10:46.094Z,16.20
2018-11-06T01:12:47.914Z,16.10
2018-11-06T01:14:49.688Z,16.10
2018-11-06T01:16:51.540Z,16.10
2018-11-06T01:18:53.307Z,16.10
2018-11-06T01:20:55.130Z,16.20
2018-11-06T01:22:56.946Z,16.10
2018-11-06T01:24:58.732Z,16.10
2018-11-06T01:27:00.544Z,16.10
2018-11-06T01:29:02.358Z,16.10
2018-11-06T01:31:04.658Z,16.10
2018-11-06T01:33:06.460Z,16.10
2018-11-06T01:35:08.235Z,16.10
2018-11-06T01:37:10.047Z,16.10
2018-11-06T01:39:11.879Z,16.10
2018-11-06T01:41:13.657Z,16.10
2018-11-06T01:43:15.448Z,16.10
2018-11-06T01:45:17.258Z,16.10
2018-11-06T01:47:19.046Z,16.10
2018-11-06T01:49:20.794Z,16.10
2018-11-06T01:51:22.619Z,16.10
2018-11-06T01:53:24.396Z,16.10
2018-11-06T01:55:26.224Z,16.10
2018-11-06T01:57:28.006Z,16.10
2018-11-06T01:59:29.816Z,16.10
2018-11-06T02:01:31.607Z,16.00
2018-11-06T02:03:33.406Z,16.10
2018-11-06T02:05:35.231Z,16.10
2018-11-06T02:07:37.020Z,16.00
2018-11-06T02:09:38.796Z,16.00
2018-11-06T02:11:40.604Z,16.10
2018-11-06T02:13:42.370Z,16.10
2018-11-06T02:15:44.148Z,16.10
2018-11-06T02:17:45.980Z,16.10
2018-11-06T02:19:47.748Z,16.10
2018-11-06T02:21:49.548Z,16.10
2018-11-06T02:23:51.364Z,16.00
2018-11-06T02:25:53.196Z,16.00
2018-11-06T02:27:55.008Z,16.00
2018-11-06T02:29:56.801Z,16.00
2018-11-06T02:31:58.605Z,16.00
2018-11-06T02:34:00.385Z,16.00
2018-11-06T02:36:02.166Z,16.00
2018-11-06T02:38:03.976Z,16.00
2018-11-06T02:40:05.768Z,16.00
2018-11-06T02:42:07.542Z,16.00
2018-11-06T02:44:09.348Z,16.00
2018-11-06T02:46:11.148Z,16.00
2018-11-06T02:48:12.918Z,16.00
2018-11-06T02:50:14.732Z,16.00
2018-11-06T02:52:16.503Z,16.00
2018-11-06T02:54:18.332Z,16.00
2018-11-06T02:56:20.113Z,16.00
2018-11-06T02:58:21.892Z,16.00
2018-11-06T03:00:23.703Z,16.00
2018-11-06T03:02:25.512Z,16.00
2018-11-06T03:04:27.330Z,16.00
2018-11-06T03:06:29.156Z,16.00
2018-11-06T03:08:31.024Z,16.00
2018-11-06T03:10:32.876Z,16.00
2018-11-06T03:12:34.609Z,16.00
2018-11-06T03:14:36.386Z,15.90
2018-11-06T03:16:38.233Z,15.90
2018-11-06T03:18:39.976Z,15.90
2018-11-06T03:20:41.763Z,15.90
2018-11-06T03:22:43.588Z,15.90
2018-11-06T03:24:45.355Z,15.90
2018-11-06T03:26:47.224Z,15.90
2018-11-06T03:28:48.977Z,15.90
2018-11-06T03:30:50.754Z,15.90
2018-11-06T03:32:52.583Z,15.90
2018-11-06T03:34:54.756Z,15.90
2018-11-06T03:36:56.551Z,15.90
2018-11-06T03:38:58.359Z,15.80
2018-11-06T03:41:00.145Z,15.90
2018-11-06T03:43:01.973Z,15.80
2018-11-06T03:45:03.770Z,15.80
2018-11-06T03:47:05.576Z,15.80
2018-11-06T03:49:07.347Z,15.80
2018-11-06T03:51:09.159Z,15.80
2018-11-06T03:53:10.961Z,15.80
2018-11-06T03:55:12.845Z,15.80
2018-11-06T03:57:14.633Z,15.80
2018-11-06T03:59:16.413Z,15.80
2018-11-06T04:01:18.216Z,15.80
2018-11-06T04:03:20.045Z,15.80
2018-11-06T04:05:21.816Z,15.80
2018-11-06T04:07:23.637Z,15.80
2018-11-06T04:09:25.457Z,15.80
2018-11-06T04:11:27.233Z,15.80
2018-11-06T04:13:29.017Z,15.80
2018-11-06T04:15:30.827Z,15.80
2018-11-06T04:17:32.615Z,15.80
2018-11-06T04:19:34.441Z,15.80
2018-11-06T04:21:36.253Z,15.80
2018-11-06T04:23:38.080Z,15.80
2018-11-06T04:25:39.859Z,15.80
2018-11-06T04:27:41.626Z,15.80
2018-11-06T04:29:43.439Z,15.80
2018-11-06T04:31:45.236Z,15.80
2018-11-06T04:33:46.989Z,15.80
2018-11-06T04:35:48.811Z,15.80
2018-11-06T04:37:50.592Z,15.80
2018-11-06T04:39:52.408Z,15.80
2018-11-06T04:41:54.234Z,15.80
2018-11-06T04:43:56.014Z,15.80
2018-11-06T04:45:57.811Z,15.80
2018-11-06T04:47:59.635Z,15.80
2018-11-06T04:50:01.537Z,15.80
2018-11-06T04:52:03.681Z,15.80
2018-11-06T04:54:05.503Z,15.70
2018-11-06T04:56:07.289Z,15.70
2018-11-06T04:58:09.117Z,15.70
2018-11-06T05:00:10.899Z,15.70
2018-11-06T05:02:12.866Z,15.70
2018-11-06T05:04:14.591Z,15.70
2018-11-06T05:06:16.376Z,15.70
2018-11-06T05:08:18.204Z,15.70
2018-11-06T05:10:19.993Z,15.70
2018-11-06T05:12:21.788Z,15.70
2018-11-06T05:14:23.723Z,15.70
2018-11-06T05:16:25.385Z,15.70
2018-11-06T05:18:27.162Z,15.70
2018-11-06T05:20:28.967Z,15.70
2018-11-06T05:22:30.793Z,15.70
2018-11-06T05:24:32.577Z,15.70
2018-11-06T05:26:34.353Z,15.60
2018-11-06T05:28:36.161Z,15.70
2018-11-06T05:30:37.931Z,15.70
2018-11-06T05:32:39.761Z,15.60
2018-11-06T05:34:41.612Z,15.70
2018-11-06T05:36:43.365Z,15.60
2018-11-06T05:38:45.169Z,15.60
2018-11-06T05:40:46.968Z,15.60
2018-11-06T05:42:48.748Z,15.60
2018-11-06T05:44:50.593Z,15.60
2018-11-06T05:46:52.373Z,15.60
2018-11-06T05:48:54.150Z,15.60
2018-11-06T05:50:55.964Z,15.60
2018-11-06T05:52:57.773Z,15.60
2018-11-06T05:54:59.567Z,15.60
2018-11-06T05:57:01.361Z,15.60
2018-11-06T05:59:03.131Z,15.60
2018-11-06T06:01:05.252Z,15.60
2018-11-06T06:03:07.061Z,15.60
2018-11-06T06:05:08.844Z,15.60
2018-11-06T06:07:10.626Z,15.60
2018-11-06T06:09:12.442Z,15.50
2018-11-06T06:11:14.341Z,15.50
2018-11-06T06:13:16.074Z,15.50
2018-11-06T06:15:17.848Z,15.50
2018-11-06T06:17:19.769Z,15.50
2018-11-06T06:19:21.462Z,15.50
2018-11-06T06:21:23.232Z,15.50
2018-11-06T06:23:25.084Z,15.50
2018-11-06T06:25:26.855Z,15.50
2018-11-06T06:27:28.683Z,15.50
2018-11-06T06:29:30.457Z,15.50
2018-11-06T06:31:32.274Z,15.50
2018-11-06T06:33:34.072Z,15.50
2018-11-06T06:35:35.853Z,15.50
2018-11-06T06:37:37.728Z,15.50
2018-11-06T06:39:39.538Z,15.50
2018-11-06T06:41:41.352Z,15.50
2018-11-06T06:43:43.208Z,15.50
2018-11-06T06:45:44.952Z,15.50
2018-11-06T06:47:46.756Z,15.50
2018-11-06T06:49:48.551Z,15.50
2018-11-06T06:51:50.316Z,15.50
2018-11-06T06:53:52.193Z,15.50
2018-11-06T06:55:53.942Z,15.50
2018-11-06T06:57:55.795Z,15.50
2018-11-06T06:59:57.568Z,15.50
2018-11-06T07:01:59.338Z,15.50
2018-11-06T07:04:01.144Z,15.50
2018-11-06T07:06:02.962Z,15.50
2018-11-06T07:08:04.794Z,15.50
2018-11-06T07:10:06.562Z,15.50
2018-11-06T07:12:08.390Z,15.50
2018-11-06T07:14:10.187Z,15.50
2018-11-06T07:16:12.026Z,15.50
2018-11-06T07:18:13.820Z,15.40
2018-11-06T07:20:15.598Z,15.50
2018-11-06T07:22:17.414Z,15.50
2018-11-06T07:24:19.197Z,15.50
2018-11-06T07:26:21.005Z,15.50
2018-11-06T07:28:22.788Z,15.40
2018-11-06T07:30:24.569Z,15.50
2018-11-06T07:32:26.380Z,15.50
2018-11-06T07:34:28.238Z,15.50
2018-11-06T07:36:29.983Z,15.50
2018-11-06T07:38:31.806Z,15.50
2018-11-06T07:40:33.683Z,15.40
2018-11-06T07:42:35.405Z,15.50
2018-11-06T07:44:37.178Z,15.50
2018-11-06T07:46:39.001Z,15.50
2018-11-06T07:48:40.811Z,15.50
2018-11-06T07:50:42.760Z,15.50
2018-11-06T07:52:44.579Z,15.50
2018-11-06T07:54:46.403Z,15.50
2018-11-06T07:56:48.205Z,15.50
2018-11-06T07:58:49.972Z,15.50
2018-11-06T08:00:51.764Z,15.50
2018-11-06T08:02:53.544Z,15.50
2018-11-06T08:04:55.372Z,15.50
2018-11-06T08:06:57.186Z,15.50
2018-11-06T08:08:58.977Z,15.50
2018-11-06T08:11:00.815Z,15.50
2018-11-06T08:13:02.603Z,15.50
2018-11-06T08:15:04.453Z,15.50
2018-11-06T08:17:06.257Z,15.50
2018-11-06T08:19:08.089Z,15.50
2018-11-06T08:21:09.885Z,15.50
2018-11-06T08:23:11.701Z,15.50
2018-11-06T08:25:13.504Z,15.50
2018-11-06T08:27:15.337Z,15.50
2018-11-06T08:29:17.147Z,15.50
2018-11-06T08:31:19.043Z,15.50
2018-11-06T08:33:21.064Z,15.50
2018-11-06T08:35:22.907Z,15.50
2018-11-06T08:37:24.720Z,15.50
2018-11-06T08:39:26.499Z,15.50
2018-11-06T08:41:28.261Z,15.50
2018-11-06T08:43:30.079Z,15.50
2018-11-06T08:45:31.889Z,15.50
2018-11-06T08:47:33.656Z,15.50
2018-11-06T08:49:35.464Z,15.50
2018-11-06T08:51:37.245Z,15.50
2018-11-06T08:53:39.065Z,15.50
2018-11-06T08:55:40.871Z,15.50
2018-11-06T08:57:42.651Z,15.50
2018-11-06T08:59:44.467Z,15.50
2018-11-06T09:01:46.269Z,15.50
2018-11-06T09:03:48.051Z,15.50
2018-11-06T09:05:49.825Z,15.50
2018-11-06T09:07:51.607Z,15.50
2018-11-06T09:09:53.419Z,15.50
2018-11-06T09:11:55.203Z,15.50
2018-11-06T09:13:57.030Z,15.50
2018-11-06T09:15:58.819Z,15.50
2018-11-06T09:18:00.618Z,15.50
2018-11-06T09:20:02.476Z,15.50
2018-11-06T09:22:04.263Z,15.50
2018-11-06T09:24:06.065Z,15.50
2018-11-06T09:26:07.877Z,15.60
2018-11-06T09:28:09.675Z,15.50
2018-11-06T09:30:11.479Z,15.50
2018-11-06T09:32:13.266Z,15.50
2018-11-06T09:34:15.081Z,15.50
2018-11-06T09:36:16.871Z,15.50
2018-11-06T09:38:18.693Z,15.50
2018-11-06T09:40:20.468Z,15.50
2018-11-06T09:42:22.240Z,15.50
2018-11-06T09:44:24.038Z,15.50
2018-11-06T09:46:25.874Z,15.50
2018-11-06T09:48:27.673Z,15.50
2018-11-06T09:50:29.506Z,15.50
2018-11-06T09:52:31.284Z,15.50
2018-11-06T09:54:33.051Z,15.50
2018-11-06T09:56:34.874Z,15.50
2018-11-06T09:58:36.674Z,15.50
2018-11-06T10:00:38.479Z,15.50
2018-11-06T10:02:40.292Z,15.50
2018-11-06T10:04:42.107Z,15.50
2018-11-06T10:06:44.137Z,15.50
2018-11-06T10:08:46.100Z,15.50
2018-11-06T10:10:47.862Z,15.50
2018-11-06T10:12:49.679Z,15.50
2018-11-06T10:14:51.489Z,15.50
2018-11-06T10:16:53.307Z,15.50
2018-11-06T10:18:55.070Z,15.50
2018-11-06T10:20:56.822Z,15.50
2018-11-06T10:22:58.633Z,15.50
2018-11-06T10:25:00.384Z,15.50
2018-11-06T10:27:03.288Z,15.50
2018-11-06T10:29:05.085Z,15.50
2018-11-06T10:31:06.874Z,15.50
2018-11-06T10:33:08.676Z,15.50
2018-11-06T10:35:10.480Z,15.50
2018-11-06T10:37:12.272Z,15.60
2018-11-06T10:39:14.058Z,15.50
2018-11-06T10:41:15.874Z,15.50
2018-11-06T10:43:17.685Z,15.50
2018-11-06T10:45:19.516Z,15.50
2018-11-06T10:47:21.287Z,15.50
2018-11-06T10:49:23.096Z,15.50
2018-11-06T10:51:24.883Z,15.50
2018-11-06T10:53:26.700Z,15.50
2018-11-06T10:55:28.522Z,15.50
2018-11-06T10:57:30.308Z,15.50
2018-11-06T10:59:32.118Z,15.50
2018-11-06T11:01:33.916Z,15.50
2018-11-06T11:03:35.742Z,15.50
2018-11-06T11:05:37.517Z,15.50
2018-11-06T11:07:39.280Z,15.50
2018-11-06T11:09:41.067Z,15.50
2018-11-06T11:11:42.888Z,15.50
2018-11-06T11:13:44.676Z,15.60
2018-11-06T11:15:46.520Z,15.50
2018-11-06T11:17:48.328Z,15.50
2018-11-06T11:19:50.144Z,15.50
2018-11-06T11:21:51.988Z,15.50
2018-11-06T11:23:53.763Z,15.60
2018-11-06T11:25:55.575Z,15.50
2018-11-06T11:27:57.375Z,15.50
2018-11-06T11:29:59.193Z,15.60
2018-11-06T11:32:01.012Z,15.50
2018-11-06T11:34:02.802Z,15.60
2018-11-06T11:36:04.610Z,15.60
2018-11-06T11:38:06.404Z,15.60
2018-11-06T11:40:08.229Z,15.60
2018-11-06T11:42:10.004Z,15.60
2018-11-06T11:44:11.776Z,15.60
2018-11-06T11:46:13.596Z,15.60
2018-11-06T11:48:15.373Z,15.60
2018-11-06T11:50:17.176Z,15.60
2018-11-06T11:52:19.002Z,15.70
2018-11-06T11:54:20.784Z,15.70
2018-11-06T11:56:22.555Z,15.70
2018-11-06T11:58:24.367Z,15.70
2018-11-06T12:00:26.206Z,15.80
2018-11-06T12:02:28.025Z,15.90
2018-11-06T12:04:29.841Z,16.00
2018-11-06T12:06:31.628Z,16.10
2018-11-06T12:08:33.433Z,16.10
2018-11-06T12:10:35.248Z,16.20
2018-11-06T12:12:37.003Z,16.20
2018-11-06T12:14:38.854Z,16.20
2018-11-06T12:16:40.645Z,16.20
2018-11-06T12:18:42.468Z,16.30
2018-11-06T12:20:44.322Z,16.30
2018-11-06T12:22:46.115Z,16.30
2018-11-06T12:24:48.290Z,16.30
2018-11-06T12:26:49.699Z,16.40
2018-11-06T12:28:51.507Z,16.30
2018-11-06T12:30:53.283Z,16.30
2018-11-06T12:32:55.191Z,16.30
2018-11-06T12:34:57.001Z,16.30
2018-11-06T12:36:58.851Z,16.30
2018-11-06T12:39:00.560Z,16.30
2018-11-06T12:41:02.369Z,16.30
2018-11-06T12:43:04.227Z,16.30
2018-11-06T12:45:06.383Z,16.30
2018-11-06T12:47:08.183Z,16.30
2018-11-06T12:49:09.988Z,16.30
2018-11-06T12:51:11.809Z,16.30
2018-11-06T12:53:13.591Z,16.30
2018-11-06T12:55:15.393Z,16.30
2018-11-06T12:57:17.230Z,16.20
2018-11-06T12:59:18.998Z,16.20
2018-11-06T13:01:20.828Z,16.10
2018-11-06T13:03:22.644Z,16.10
2018-11-06T13:05:24.389Z,16.00
2018-11-06T13:07:26.188Z,16.00
2018-11-06T13:09:27.995Z,16.00
2018-11-06T13:11:29.827Z,15.90
2018-11-06T13:13:31.603Z,15.90
2018-11-06T13:15:33.420Z,15.90
2018-11-06T13:17:35.507Z,15.90
2018-11-06T13:19:37.304Z,15.80
2018-11-06T13:21:39.147Z,15.80
2018-11-06T13:23:40.933Z,15.80
2018-11-06T13:25:42.949Z,15.80
2018-11-06T13:27:44.694Z,15.80
2018-11-06T13:29:46.467Z,15.70
2018-11-06T13:31:48.274Z,15.70
2018-11-06T13:33:50.069Z,15.70
2018-11-06T13:35:51.901Z,15.70
2018-11-06T13:37:53.730Z,15.70
2018-11-06T13:39:55.521Z,15.60
2018-11-06T13:41:57.385Z,15.60
2018-11-06T13:43:59.404Z,15.60
2018-11-06T13:46:00.930Z,15.60
2018-11-06T13:48:02.729Z,15.60
2018-11-06T13:50:04.514Z,15.60
2018-11-06T13:52:06.308Z,15.60
2018-11-06T13:54:08.099Z,15.60
2018-11-06T13:56:09.948Z,15.60
2018-11-06T13:58:11.735Z,15.60
2018-11-06T14:00:13.529Z,15.50
2018-11-06T14:02:15.327Z,15.60
2018-11-06T14:04:17.125Z,15.50
2018-11-06T14:06:18.908Z,15.50
2018-11-06T14:08:20.701Z,15.50
2018-11-06T14:10:22.493Z,15.50
2018-11-06T14:12:24.304Z,15.50
2018-11-06T14:14:26.080Z,15.50
2018-11-06T14:16:27.916Z,15.50
2018-11-06T14:18:29.700Z,15.50
2018-11-06T14:20:31.526Z,15.50
2018-11-06T14:22:33.317Z,15.50
2018-11-06T14:24:35.085Z,15.50
2018-11-06T14:26:36.915Z,15.50
2018-11-06T14:28:38.702Z,15.50
2018-11-06T14:30:40.930Z,15.50
2018-11-06T14:32:42.686Z,15.50
2018-11-06T14:34:44.508Z,15.50
2018-11-06T14:36:46.276Z,15.50
2018-11-06T14:38:48.088Z,15.40
2018-11-06T14:40:49.904Z,15.50
2018-11-06T14:42:51.745Z,15.40
2018-11-06T14:44:53.498Z,15.40
2018-11-06T14:46:55.309Z,15.40
2018-11-06T14:48:57.200Z,15.40
2018-11-06T14:50:58.965Z,15.40
2018-11-06T14:53:00.802Z,15.40
2018-11-06T14:55:02.566Z,15.40
2018-11-06T14:57:04.377Z,15.40
2018-11-06T14:59:06.229Z,15.40
2018-11-06T15:01:08.037Z,15.40
2018-11-06T15:03:09.829Z,15.40
2018-11-06T15:05:11.657Z,15.40
2018-11-06T15:07:13.436Z,15.40
2018-11-06T15:09:15.273Z,15.40
2018-11-06T15:11:17.064Z,15.40
2018-11-06T15:13:18.884Z,15.40
2018-11-06T15:15:20.698Z,15.40
2018-11-06T15:17:22.516Z,15.40
2018-11-06T15:19:24.338Z,15.40
2018-11-06T15:21:26.116Z,15.40
2018-11-06T15:23:27.958Z,15.40
2018-11-06T15:25:29.765Z,15.40
2018-11-06T15:27:31.566Z,15.40
2018-11-06T15:29:33.391Z,15.30
2018-11-06T15:31:35.179Z,15.40
2018-11-06T15:33:36.956Z,15.30
2018-11-06T15:35:38.770Z,15.30
2018-11-06T15:37:40.587Z,15.30
2018-11-06T15:39:42.373Z,15.30
2018-11-06T15:41:44.269Z,15.30
2018-11-06T15:43:45.964Z,15.30
2018-11-06T15:45:47.748Z,15.30
2018-11-06T15:47:49.555Z,15.30
2018-11-06T15:49:51.341Z,15.30
2018-11-06T15:51:53.135Z,15.30
2018-11-06T15:53:54.935Z,15.30
2018-11-06T15:55:56.786Z,15.30
2018-11-06T15:57:58.566Z,15.30
2018-11-06T16:00:00.356Z,15.30
2018-11-06T16:02:02.159Z,15.30
2018-11-06T16:04:04.048Z,15.30
2018-11-06T16:06:05.856Z,15.30
2018-11-06T16:08:07.761Z,15.30
2018-11-06T16:10:09.480Z,15.30
2018-11-06T16:12:11.353Z,15.30
2018-11-06T16:14:13.969Z,15.30
2018-11-06T16:16:15.753Z,15.30
2018-11-06T16:18:17.531Z,15.30
2018-11-06T16:20:19.343Z,15.30
2018-11-06T16:22:21.118Z,15.30
2018-11-06T16:24:22.919Z,15.30
2018-11-06T16:26:24.727Z,15.30
2018-11-06T16:28:26.543Z,15.30
2018-11-06T16:30:28.373Z,15.20
2018-11-06T16:32:30.167Z,15.20
2018-11-06T16:34:31.967Z,15.20
2018-11-06T16:36:33.783Z,15.20
2018-11-06T16:38:35.584Z,15.20
2018-11-06T16:40:37.369Z,15.20
2018-11-06T16:42:39.175Z,15.20
2018-11-06T16:44:41.031Z,15.20
2018-11-06T16:46:42.813Z,15.20
2018-11-06T16:48:44.637Z,15.30
2018-11-06T16:50:46.443Z,15.20
2018-11-06T16:52:48.221Z,15.20
2018-11-06T16:54:50.048Z,15.20
2018-11-06T16:56:51.934Z,15.20
2018-11-06T16:58:53.711Z,15.20
2018-11-06T17:00:55.696Z,15.20
2018-11-06T17:02:57.359Z,15.20
2018-11-06T17:04:59.198Z,15.20
2018-11-06T17:07:00.998Z,15.20
2018-11-06T17:09:02.773Z,15.20
2018-11-06T17:11:04.588Z,15.20
2018-11-06T17:13:06.439Z,15.20
2018-11-06T17:15:08.217Z,15.20
2018-11-06T17:17:10.010Z,15.20
2018-11-06T17:19:11.827Z,15.20
2018-11-06T17:21:13.666Z,15.20
2018-11-06T17:23:15.461Z,15.20
2018-11-06T17:25:17.246Z,15.20
2018-11-06T17:27:19.034Z,15.20
2018-11-06T17:29:20.859Z,15.20
2018-11-06T17:31:22.645Z,15.20
2018-11-06T17:33:24.439Z,15.20
2018-11-06T17:35:26.258Z,15.20
2018-11-06T17:37:28.113Z,15.10
2018-11-06T17:39:29.996Z,15.10
2018-11-06T17:41:31.714Z,15.10
2018-11-06T17:43:33.535Z,15.20
2018-11-06T17:45:35.380Z,15.20
2018-11-06T17:47:37.158Z,15.20
2018-11-06T17:49:38.949Z,15.20
2018-11-06T17:51:40.787Z,15.10
2018-11-06T17:53:42.570Z,15.10
2018-11-06T17:55:44.375Z,15.10
2018-11-06T17:57:46.154Z,15.10
2018-11-06T17:59:47.959Z,15.10
2018-11-06T18:01:49.769Z,15.10
2018-11-06T18:03:51.591Z,15.20
2018-11-06T18:05:53.385Z,15.20
2018-11-06T18:07:55.285Z,15.10
2018-11-06T18:09:57.089Z,15.10
2018-11-06T18:11:58.928Z,15.10
2018-11-06T18:14:00.717Z,15.20
2018-11-06T18:16:02.505Z,15.10
2018-11-06T18:18:04.405Z,15.10
2018-11-06T18:20:06.117Z,15.10
2018-11-06T18:22:07.940Z,15.10
2018-11-06T18:24:09.716Z,15.10
2018-11-06T18:26:11.536Z,15.10
2018-11-06T18:28:13.328Z,15.10
2018-11-06T18:30:15.154Z,15.10
2018-11-06T18:32:16.994Z,15.10
2018-11-06T18:34:18.739Z,15.10
2018-11-06T18:36:20.533Z,15.10
2018-11-06T18:38:22.360Z,15.10
2018-11-06T18:40:24.158Z,15.10
2018-11-06T18:42:25.952Z,15.10
2018-11-06T18:44:27.777Z,15.10
2018-11-06T18:46:29.560Z,15.10
2018-11-06T18:48:31.383Z,15.10
2018-11-06T18:50:33.161Z,15.10
2018-11-06T18:52:34.941Z,15.10
2018-11-06T18:54:36.756Z,15.10
2018-11-06T18:56:38.539Z,15.10
2018-11-06T18:58:40.357Z,15.10
2018-11-06T19:00:42.134Z,15.10
2018-11-06T19:02:43.932Z,15.10
2018-11-06T19:04:45.775Z,15.10
2018-11-06T19:06:47.563Z,15.10
2018-11-06T19:08:49.340Z,15.10
2018-11-06T19:10:51.272Z,15.10
2018-11-06T19:12:53.004Z,15.10
2018-11-06T19:14:54.814Z,15.10
2018-11-06T19:16:56.687Z,15.10
2018-11-06T19:18:58.466Z,15.10
2018-11-06T19:21:00.248Z,15.10
2018-11-06T19:23:02.037Z,15.10
2018-11-06T19:25:03.882Z,15.10
2018-11-06T19:27:05.668Z,15.10
2018-11-06T19:29:07.441Z,15.10
2018-11-06T19:31:09.257Z,15.00
2018-11-06T19:33:11.038Z,15.10
2018-11-06T19:35:12.821Z,15.10
2018-11-06T19:37:14.659Z,15.10
2018-11-06T19:39:16.436Z,15.10
2018-11-06T19:41:18.284Z,15.00
2018-11-06T19:43:20.112Z,15.10
2018-11-06T19:45:21.894Z,15.00
2018-11-06T19:47:23.764Z,15.00
2018-11-06T19:49:25.517Z,15.00
2018-11-06T19:51:27.304Z,15.00
2018-11-06T19:53:29.209Z,15.00
2018-11-06T19:55:30.926Z,15.00
2018-11-06T19:57:32.733Z,15.00
2018-11-06T19:59:34.542Z,15.00
2018-11-06T20:01:36.362Z,15.00
2018-11-06T20:03:38.345Z,15.00
2018-11-06T20:05:40.151Z,15.00
2018-11-06T20:07:41.862Z,15.00
2018-11-06T20:09:43.700Z,15.00
2018-11-06T20:11:45.494Z,15.00
2018-11-06T20:13:47.298Z,15.00
2018-11-06T20:15:49.177Z,15.00
2018-11-06T20:17:50.941Z,15.10
2018-11-06T20:19:52.698Z,15.00
2018-11-06T20:21:54.534Z,15.00
2018-11-06T20:23:56.347Z,15.00
2018-11-06T20:25:58.112Z,15.00
2018-11-06T20:27:59.918Z,15.00
2018-11-06T20:30:01.883Z,15.00
2018-11-06T20:32:03.841Z,15.00
2018-11-06T20:34:05.639Z,15.00
2018-11-06T20:36:07.462Z,15.00
2018-11-06T20:38:09.412Z,15.00
2018-11-06T20:40:11.094Z,15.00
2018-11-06T20:42:12.919Z,15.00
2018-11-06T20:44:15.204Z,15.00
2018-11-06T20:46:17.052Z,15.00
2018-11-06T20:48:18.805Z,15.00
2018-11-06T20:50:20.603Z,15.00
2018-11-06T20:52:22.372Z,15.00
2018-11-06T20:54:24.174Z,15.00
2018-11-06T20:56:25.968Z,15.00
2018-11-06T20:58:27.785Z,15.00
2018-11-06T21:00:29.602Z,15.00
2018-11-06T21:02:31.390Z,15.00
2018-11-06T21:04:33.201Z,15.00
2018-11-06T21:06:34.987Z,15.00
2018-11-06T21:08:36.833Z,15.00
2018-11-06T21:10:38.699Z,15.00
2018-11-06T21:12:40.470Z,15.00
2018-11-06T21:14:42.301Z,15.00
2018-11-06T21:16:44.240Z,15.00
2018-11-06T21:18:46.025Z,15.00
2018-11-06T21:20:47.832Z,15.00
2018-11-06T21:22:49.638Z,15.00
2018-11-06T21:24:51.485Z,14.90
2018-11-06T21:26:53.270Z,14.90
2018-11-06T21:28:54.998Z,14.90
2018-11-06T21:30:56.821Z,15.00
2018-11-06T21:32:58.612Z,14.90
2018-11-06T21:35:00.416Z,14.90
2018-11-06T21:37:02.240Z,14.90
2018-11-06T21:39:04.189Z,15.00
2018-11-06T21:41:05.953Z,14.90
2018-11-06T21:43:07.724Z,14.90
2018-11-06T21:45:09.584Z,14.90
2018-11-06T21:47:11.366Z,14.90
2018-11-06T21:49:13.236Z,14.90
2018-11-06T21:51:15.054Z,14.90
2018-11-06T21:53:16.845Z,14.90
2018-11-06T21:55:18.662Z,14.90
2018-11-06T21:57:20.420Z,14.90
2018-11-06T21:59:22.208Z,14.90
2018-11-06T22:01:24.032Z,14.90
2018-11-06T22:03:25.834Z,14.90
2018-11-06T22:05:27.576Z,14.90
2018-11-06T22:07:29.422Z,14.90
2018-11-06T22:09:31.163Z,14.90
2018-11-06T22:11:32.972Z,14.90
2018-11-06T22:13:34.792Z,14.90
2018-11-06T22:15:36.589Z,14.90
2018-11-06T22:17:38.382Z,14.90
2018-11-06T22:19:40.159Z,14.90
2018-11-06T22:21:42.010Z,14.90
2018-11-06T22:23:43.764Z,14.90
2018-11-06T22:25:45.593Z,14.90
2018-11-06T22:27:47.366Z,14.90
2018-11-06T22:29:49.199Z,14.90
2018-11-06T22:31:51.131Z,14.90
2018-11-06T22:33:52.810Z,14.90
2018-11-06T22:35:54.580Z,14.90
2018-11-06T22:37:56.417Z,14.90
2018-11-06T22:39:58.177Z,14.90
2018-11-06T22:41:59.950Z,14.90
2018-11-06T22:44:01.783Z,14.90
2018-11-06T22:46:03.573Z,14.90
2018-11-06T22:48:05.371Z,14.90
2018-11-06T22:50:07.161Z,14.80
2018-11-06T22:52:08.964Z,14.90
2018-11-06T22:54:10.815Z,14.90
2018-11-06T22:56:12.643Z,14.80
2018-11-06T22:58:14.431Z,14.80
2018-11-06T23:00:16.213Z,14.90
2018-11-06T23:02:18.033Z,14.90
2018-11-06T23:04:19.805Z,14.80
2018-11-06T23:06:21.760Z,14.80
2018-11-06T23:08:23.453Z,14.90
2018-11-06T23:10:25.309Z,14.80
2018-11-06T23:12:27.075Z,14.80
2018-11-06T23:14:28.942Z,14.80
2018-11-06T23:16:30.672Z,14.80
2018-11-06T23:18:32.460Z,14.90
2018-11-06T23:20:34.332Z,14.80
2018-11-06T23:22:36.086Z,14.80
2018-11-06T23:24:37.906Z,14.80
2018-11-06T23:26:39.685Z,14.80
2018-11-06T23:28:41.461Z,14.80
2018-11-06T23:30:43.281Z,14.80
2018-11-06T23:32:45.063Z,14.80
2018-11-06T23:34:46.868Z,14.90
2018-11-06T23:36:48.628Z,14.80
2018-11-06T23:38:50.433Z,14.80
2018-11-06T23:40:52.228Z,14.80
2018-11-06T23:42:54.002Z,14.80
2018-11-06T23:44:55.838Z,14.80
2018-11-06T23:46:57.634Z,14.80
2018-11-06T23:48:59.413Z,14.80
2018-11-06T23:51:01.253Z,14.80
2018-11-06T23:53:03.024Z,14.80
2018-11-06T23:55:04.869Z,14.80
2018-11-06T23:57:06.612Z,14.80
2018-11-06T23:59:08.428Z,14.80
